sensor_id;sensor_type;location;lat;lon;timestamp;P1;durP1;ratioP1;P2;durP2;ratioP2
12535;SDS011;6334;48.696;2.114;2023-07-22T00:01:33;6.63;;;4.60;;
12535;SDS011;6334;48.696;2.114;2023-07-22T00:04:04;6.50;;;4.63;;
12535;SDS011;6334;48.696;2.114;2023-07-22T00:06:34;10.13;;;4.77;;
12535;SDS011;6334;48.696;2.114;2023-07-22T00:09:05;6.47;;;4.77;;
12535;SDS011;6334;48.696;2.114;2023-07-22T00:11:36;8.07;;;5.40;;
12535;SDS011;6334;48.696;2.114;2023-07-22T00:14:07;6.27;;;4.50;;
12535;SDS011;6334;48.696;2.114;2023-07-22T00:16:37;7.63;;;4.57;;
12535;SDS011;6334;48.696;2.114;2023-07-22T00:19:08;6.37;;;4.70;;
12535;SDS011;6334;48.696;2.114;2023-07-22T00:21:38;5.27;;;4.30;;
12535;SDS011;6334;48.696;2.114;2023-07-22T00:24:09;4.80;;;4.30;;
12535;SDS011;6334;48.696;2.114;2023-07-22T00:26:39;4.90;;;3.83;;
12535;SDS011;6334;48.696;2.114;2023-07-22T00:29:09;5.87;;;4.40;;
12535;SDS011;6334;48.696;2.114;2023-07-22T00:31:40;5.47;;;4.57;;
12535;SDS011;6334;48.696;2.114;2023-07-22T00:34:12;5.37;;;4.30;;
12535;SDS011;6334;48.696;2.114;2023-07-22T00:36:42;6.80;;;4.30;;
12535;SDS011;6334;48.696;2.114;2023-07-22T00:39:13;5.33;;;4.33;;
12535;SDS011;6334;48.696;2.114;2023-07-22T00:41:43;5.30;;;4.23;;
12535;SDS011;6334;48.696;2.114;2023-07-22T00:44:13;7.37;;;4.10;;
12535;SDS011;6334;48.696;2.114;2023-07-22T00:46:44;6.87;;;4.33;;
12535;SDS011;6334;48.696;2.114;2023-07-22T00:49:14;4.97;;;4.00;;
12535;SDS011;6334;48.696;2.114;2023-07-22T00:51:45;4.53;;;3.93;;
12535;SDS011;6334;48.696;2.114;2023-07-22T00:54:15;5.30;;;4.30;;
12535;SDS011;6334;48.696;2.114;2023-07-22T00:56:46;6.00;;;4.40;;
12535;SDS011;6334;48.696;2.114;2023-07-22T00:59:16;6.10;;;4.33;;
12535;SDS011;6334;48.696;2.114;2023-07-22T01:01:47;6.53;;;4.83;;
12535;SDS011;6334;48.696;2.114;2023-07-22T01:04:19;6.97;;;4.77;;
12535;SDS011;6334;48.696;2.114;2023-07-22T01:06:48;5.93;;;4.30;;
12535;SDS011;6334;48.696;2.114;2023-07-22T01:09:18;5.40;;;4.27;;
12535;SDS011;6334;48.696;2.114;2023-07-22T01:11:48;6.23;;;4.57;;
12535;SDS011;6334;48.696;2.114;2023-07-22T01:14:19;6.37;;;4.50;;
12535;SDS011;6334;48.696;2.114;2023-07-22T01:16:49;7.50;;;4.53;;
12535;SDS011;6334;48.696;2.114;2023-07-22T01:19:20;6.20;;;4.47;;
12535;SDS011;6334;48.696;2.114;2023-07-22T01:21:50;5.07;;;3.93;;
12535;SDS011;6334;48.696;2.114;2023-07-22T01:24:21;5.40;;;3.97;;
12535;SDS011;6334;48.696;2.114;2023-07-22T01:26:51;7.53;;;4.20;;
12535;SDS011;6334;48.696;2.114;2023-07-22T01:29:22;6.00;;;4.57;;
12535;SDS011;6334;48.696;2.114;2023-07-22T01:31:53;5.27;;;4.33;;
12535;SDS011;6334;48.696;2.114;2023-07-22T01:34:22;6.57;;;4.50;;
12535;SDS011;6334;48.696;2.114;2023-07-22T01:36:53;4.03;;;3.73;;
12535;SDS011;6334;48.696;2.114;2023-07-22T01:39:23;6.07;;;4.50;;
12535;SDS011;6334;48.696;2.114;2023-07-22T01:41:54;5.13;;;4.37;;
12535;SDS011;6334;48.696;2.114;2023-07-22T01:44:24;4.93;;;4.23;;
12535;SDS011;6334;48.696;2.114;2023-07-22T01:46:55;8.63;;;4.47;;
12535;SDS011;6334;48.696;2.114;2023-07-22T01:49:25;6.13;;;4.40;;
12535;SDS011;6334;48.696;2.114;2023-07-22T01:51:56;6.53;;;4.30;;
12535;SDS011;6334;48.696;2.114;2023-07-22T01:54:26;5.60;;;4.47;;
12535;SDS011;6334;48.696;2.114;2023-07-22T01:56:57;5.93;;;4.50;;
12535;SDS011;6334;48.696;2.114;2023-07-22T01:59:27;6.43;;;4.80;;
12535;SDS011;6334;48.696;2.114;2023-07-22T02:01:57;4.93;;;4.13;;
12535;SDS011;6334;48.696;2.114;2023-07-22T02:04:28;5.70;;;4.60;;
12535;SDS011;6334;48.696;2.114;2023-07-22T02:06:58;6.60;;;4.47;;
12535;SDS011;6334;48.696;2.114;2023-07-22T02:09:29;5.57;;;4.50;;
12535;SDS011;6334;48.696;2.114;2023-07-22T02:11:59;6.93;;;4.80;;
12535;SDS011;6334;48.696;2.114;2023-07-22T02:14:30;6.83;;;4.50;;
12535;SDS011;6334;48.696;2.114;2023-07-22T02:17:00;5.43;;;4.47;;
12535;SDS011;6334;48.696;2.114;2023-07-22T02:19:31;5.67;;;4.37;;
12535;SDS011;6334;48.696;2.114;2023-07-22T02:22:01;6.07;;;4.40;;
12535;SDS011;6334;48.696;2.114;2023-07-22T02:24:32;4.47;;;3.87;;
12535;SDS011;6334;48.696;2.114;2023-07-22T02:27:02;8.37;;;4.63;;
12535;SDS011;6334;48.696;2.114;2023-07-22T02:29:32;4.63;;;4.13;;
12535;SDS011;6334;48.696;2.114;2023-07-22T02:32:03;6.57;;;4.60;;
12535;SDS011;6334;48.696;2.114;2023-07-22T02:34:33;7.53;;;4.47;;
12535;SDS011;6334;48.696;2.114;2023-07-22T02:37:04;4.60;;;3.97;;
12535;SDS011;6334;48.696;2.114;2023-07-22T02:39:34;5.17;;;4.00;;
12535;SDS011;6334;48.696;2.114;2023-07-22T02:42:05;5.13;;;4.07;;
12535;SDS011;6334;48.696;2.114;2023-07-22T02:44:35;8.33;;;4.60;;
12535;SDS011;6334;48.696;2.114;2023-07-22T02:47:06;6.30;;;4.23;;
12535;SDS011;6334;48.696;2.114;2023-07-22T02:49:36;7.17;;;4.43;;
12535;SDS011;6334;48.696;2.114;2023-07-22T02:52:07;6.03;;;4.10;;
12535;SDS011;6334;48.696;2.114;2023-07-22T02:54:39;4.77;;;4.07;;
12535;SDS011;6334;48.696;2.114;2023-07-22T02:57:07;5.03;;;4.20;;
12535;SDS011;6334;48.696;2.114;2023-07-22T02:59:38;4.80;;;4.30;;
12535;SDS011;6334;48.696;2.114;2023-07-22T03:02:08;5.17;;;4.40;;
12535;SDS011;6334;48.696;2.114;2023-07-22T03:04:39;5.13;;;4.10;;
12535;SDS011;6334;48.696;2.114;2023-07-22T03:07:09;5.33;;;4.23;;
12535;SDS011;6334;48.696;2.114;2023-07-22T03:09:40;5.53;;;4.17;;
12535;SDS011;6334;48.696;2.114;2023-07-22T03:12:10;5.67;;;4.30;;
12535;SDS011;6334;48.696;2.114;2023-07-22T03:14:41;7.43;;;4.50;;
12535;SDS011;6334;48.696;2.114;2023-07-22T03:17:11;4.57;;;4.13;;
12535;SDS011;6334;48.696;2.114;2023-07-22T03:19:42;5.33;;;4.23;;
12535;SDS011;6334;48.696;2.114;2023-07-22T03:22:13;5.67;;;4.30;;
12535;SDS011;6334;48.696;2.114;2023-07-22T03:24:48;7.37;;;4.60;;
12535;SDS011;6334;48.696;2.114;2023-07-22T03:27:19;6.37;;;4.20;;
12535;SDS011;6334;48.696;2.114;2023-07-22T03:29:49;5.10;;;4.13;;
12535;SDS011;6334;48.696;2.114;2023-07-22T03:32:20;5.87;;;4.33;;
12535;SDS011;6334;48.696;2.114;2023-07-22T03:34:50;8.13;;;4.73;;
12535;SDS011;6334;48.696;2.114;2023-07-22T03:37:20;8.67;;;4.20;;
12535;SDS011;6334;48.696;2.114;2023-07-22T03:39:51;4.73;;;4.20;;
12535;SDS011;6334;48.696;2.114;2023-07-22T03:42:21;6.07;;;4.50;;
12535;SDS011;6334;48.696;2.114;2023-07-22T03:44:52;6.70;;;4.50;;
12535;SDS011;6334;48.696;2.114;2023-07-22T03:47:22;5.13;;;4.33;;
12535;SDS011;6334;48.696;2.114;2023-07-22T03:49:53;5.07;;;4.13;;
12535;SDS011;6334;48.696;2.114;2023-07-22T03:52:23;6.83;;;4.10;;
12535;SDS011;6334;48.696;2.114;2023-07-22T03:54:56;6.53;;;4.20;;
12535;SDS011;6334;48.696;2.114;2023-07-22T03:57:27;7.07;;;4.23;;
12535;SDS011;6334;48.696;2.114;2023-07-22T03:59:57;5.73;;;4.27;;
12535;SDS011;6334;48.696;2.114;2023-07-22T04:02:28;6.63;;;4.67;;
12535;SDS011;6334;48.696;2.114;2023-07-22T04:04:58;5.83;;;4.23;;
12535;SDS011;6334;48.696;2.114;2023-07-22T04:07:29;6.30;;;4.40;;
12535;SDS011;6334;48.696;2.114;2023-07-22T04:09:59;6.47;;;4.47;;
12535;SDS011;6334;48.696;2.114;2023-07-22T04:12:30;7.17;;;4.97;;
12535;SDS011;6334;48.696;2.114;2023-07-22T04:15:00;6.63;;;4.53;;
12535;SDS011;6334;48.696;2.114;2023-07-22T04:17:30;5.77;;;4.60;;
12535;SDS011;6334;48.696;2.114;2023-07-22T04:20:01;5.60;;;4.33;;
12535;SDS011;6334;48.696;2.114;2023-07-22T04:22:31;7.80;;;4.70;;
12535;SDS011;6334;48.696;2.114;2023-07-22T04:25:02;10.50;;;5.00;;
12535;SDS011;6334;48.696;2.114;2023-07-22T04:27:32;7.53;;;4.53;;
12535;SDS011;6334;48.696;2.114;2023-07-22T04:30:03;6.00;;;4.37;;
12535;SDS011;6334;48.696;2.114;2023-07-22T04:32:33;4.87;;;4.30;;
12535;SDS011;6334;48.696;2.114;2023-07-22T04:35:04;6.80;;;4.73;;
12535;SDS011;6334;48.696;2.114;2023-07-22T04:37:34;5.47;;;4.40;;
12535;SDS011;6334;48.696;2.114;2023-07-22T04:40:05;5.50;;;4.17;;
12535;SDS011;6334;48.696;2.114;2023-07-22T04:42:35;6.67;;;4.80;;
12535;SDS011;6334;48.696;2.114;2023-07-22T04:45:06;5.17;;;4.27;;
12535;SDS011;6334;48.696;2.114;2023-07-22T04:47:36;9.67;;;4.80;;
12535;SDS011;6334;48.696;2.114;2023-07-22T04:50:07;10.03;;;4.73;;
12535;SDS011;6334;48.696;2.114;2023-07-22T04:52:37;10.27;;;4.80;;
12535;SDS011;6334;48.696;2.114;2023-07-22T04:55:08;7.07;;;4.80;;
12535;SDS011;6334;48.696;2.114;2023-07-22T04:57:38;7.13;;;4.70;;
12535;SDS011;6334;48.696;2.114;2023-07-22T05:00:09;5.93;;;4.27;;
12535;SDS011;6334;48.696;2.114;2023-07-22T05:02:39;7.17;;;4.27;;
12535;SDS011;6334;48.696;2.114;2023-07-22T05:05:09;6.57;;;4.90;;
12535;SDS011;6334;48.696;2.114;2023-07-22T05:07:40;6.10;;;5.00;;
12535;SDS011;6334;48.696;2.114;2023-07-22T05:10:10;5.93;;;4.23;;
12535;SDS011;6334;48.696;2.114;2023-07-22T05:12:41;5.50;;;4.27;;
12535;SDS011;6334;48.696;2.114;2023-07-22T05:15:12;7.17;;;4.60;;
12535;SDS011;6334;48.696;2.114;2023-07-22T05:17:42;8.80;;;5.03;;
12535;SDS011;6334;48.696;2.114;2023-07-22T05:20:12;5.77;;;4.53;;
12535;SDS011;6334;48.696;2.114;2023-07-22T05:22:43;6.40;;;4.43;;
12535;SDS011;6334;48.696;2.114;2023-07-22T05:25:13;6.07;;;4.70;;
12535;SDS011;6334;48.696;2.114;2023-07-22T05:27:44;6.30;;;4.90;;
12535;SDS011;6334;48.696;2.114;2023-07-22T05:30:14;7.20;;;4.70;;
12535;SDS011;6334;48.696;2.114;2023-07-22T05:32:44;5.00;;;4.27;;
12535;SDS011;6334;48.696;2.114;2023-07-22T05:35:15;6.17;;;4.33;;
12535;SDS011;6334;48.696;2.114;2023-07-22T05:37:45;6.53;;;4.60;;
12535;SDS011;6334;48.696;2.114;2023-07-22T05:40:16;5.87;;;4.37;;
12535;SDS011;6334;48.696;2.114;2023-07-22T05:42:46;6.87;;;4.73;;
12535;SDS011;6334;48.696;2.114;2023-07-22T05:45:17;7.53;;;4.53;;
12535;SDS011;6334;48.696;2.114;2023-07-22T05:47:47;5.50;;;4.20;;
12535;SDS011;6334;48.696;2.114;2023-07-22T05:50:18;5.80;;;4.53;;
12535;SDS011;6334;48.696;2.114;2023-07-22T05:52:48;7.03;;;4.37;;
12535;SDS011;6334;48.696;2.114;2023-07-22T05:55:19;5.27;;;4.37;;
12535;SDS011;6334;48.696;2.114;2023-07-22T05:57:49;5.93;;;4.63;;
12535;SDS011;6334;48.696;2.114;2023-07-22T06:00:19;5.63;;;4.63;;
12535;SDS011;6334;48.696;2.114;2023-07-22T06:02:50;6.90;;;4.70;;
12535;SDS011;6334;48.696;2.114;2023-07-22T06:05:20;8.37;;;4.87;;
12535;SDS011;6334;48.696;2.114;2023-07-22T06:07:51;5.43;;;4.77;;
12535;SDS011;6334;48.696;2.114;2023-07-22T06:10:21;5.80;;;4.70;;
12535;SDS011;6334;48.696;2.114;2023-07-22T06:12:52;5.37;;;4.40;;
12535;SDS011;6334;48.696;2.114;2023-07-22T06:15:22;6.53;;;4.60;;
12535;SDS011;6334;48.696;2.114;2023-07-22T06:17:53;6.93;;;4.63;;
12535;SDS011;6334;48.696;2.114;2023-07-22T06:20:23;6.40;;;4.73;;
12535;SDS011;6334;48.696;2.114;2023-07-22T06:22:54;5.60;;;4.50;;
12535;SDS011;6334;48.696;2.114;2023-07-22T06:25:24;5.97;;;5.00;;
12535;SDS011;6334;48.696;2.114;2023-07-22T06:27:54;5.90;;;4.23;;
12535;SDS011;6334;48.696;2.114;2023-07-22T06:30:25;6.63;;;4.87;;
12535;SDS011;6334;48.696;2.114;2023-07-22T06:32:56;6.47;;;4.57;;
12535;SDS011;6334;48.696;2.114;2023-07-22T06:35:26;5.20;;;4.50;;
12535;SDS011;6334;48.696;2.114;2023-07-22T06:37:58;7.33;;;4.80;;
12535;SDS011;6334;48.696;2.114;2023-07-22T06:40:28;5.50;;;4.50;;
12535;SDS011;6334;48.696;2.114;2023-07-22T06:43:00;4.90;;;4.47;;
12535;SDS011;6334;48.696;2.114;2023-07-22T06:45:31;6.47;;;4.37;;
12535;SDS011;6334;48.696;2.114;2023-07-22T06:48:01;7.13;;;4.70;;
12535;SDS011;6334;48.696;2.114;2023-07-22T06:50:31;5.60;;;4.37;;
12535;SDS011;6334;48.696;2.114;2023-07-22T06:53:01;7.47;;;4.80;;
12535;SDS011;6334;48.696;2.114;2023-07-22T06:55:32;5.17;;;4.47;;
12535;SDS011;6334;48.696;2.114;2023-07-22T06:58:02;6.83;;;4.80;;
12535;SDS011;6334;48.696;2.114;2023-07-22T07:00:33;5.83;;;4.67;;
12535;SDS011;6334;48.696;2.114;2023-07-22T07:03:03;6.53;;;4.93;;
12535;SDS011;6334;48.696;2.114;2023-07-22T07:05:34;5.90;;;4.57;;
12535;SDS011;6334;48.696;2.114;2023-07-22T07:08:04;6.03;;;4.67;;
12535;SDS011;6334;48.696;2.114;2023-07-22T07:10:38;6.73;;;4.60;;
12535;SDS011;6334;48.696;2.114;2023-07-22T07:13:08;6.70;;;5.17;;
12535;SDS011;6334;48.696;2.114;2023-07-22T07:15:38;14.67;;;5.23;;
12535;SDS011;6334;48.696;2.114;2023-07-22T07:18:09;7.47;;;4.80;;
12535;SDS011;6334;48.696;2.114;2023-07-22T07:20:39;7.40;;;4.77;;
12535;SDS011;6334;48.696;2.114;2023-07-22T07:23:10;6.43;;;4.97;;
12535;SDS011;6334;48.696;2.114;2023-07-22T07:25:40;7.00;;;4.83;;
12535;SDS011;6334;48.696;2.114;2023-07-22T07:28:11;6.37;;;4.63;;
12535;SDS011;6334;48.696;2.114;2023-07-22T07:30:41;7.17;;;5.23;;
12535;SDS011;6334;48.696;2.114;2023-07-22T07:33:12;7.03;;;4.63;;
12535;SDS011;6334;48.696;2.114;2023-07-22T07:35:45;6.87;;;4.90;;
12535;SDS011;6334;48.696;2.114;2023-07-22T07:38:12;6.30;;;4.90;;
12535;SDS011;6334;48.696;2.114;2023-07-22T07:40:43;4.53;;;4.07;;
12535;SDS011;6334;48.696;2.114;2023-07-22T07:43:14;7.60;;;4.60;;
12535;SDS011;6334;48.696;2.114;2023-07-22T07:45:44;5.60;;;4.20;;
12535;SDS011;6334;48.696;2.114;2023-07-22T07:48:16;5.97;;;4.70;;
12535;SDS011;6334;48.696;2.114;2023-07-22T07:50:46;6.63;;;4.70;;
12535;SDS011;6334;48.696;2.114;2023-07-22T07:53:17;6.37;;;4.63;;
12535;SDS011;6334;48.696;2.114;2023-07-22T07:55:47;8.13;;;5.20;;
12535;SDS011;6334;48.696;2.114;2023-07-22T07:58:18;5.77;;;4.53;;
12535;SDS011;6334;48.696;2.114;2023-07-22T08:00:49;6.13;;;4.67;;
12535;SDS011;6334;48.696;2.114;2023-07-22T08:03:19;5.97;;;4.53;;
12535;SDS011;6334;48.696;2.114;2023-07-22T08:05:50;5.00;;;4.50;;
12535;SDS011;6334;48.696;2.114;2023-07-22T08:08:21;7.87;;;5.20;;
12535;SDS011;6334;48.696;2.114;2023-07-22T08:11:00;6.90;;;4.77;;
12535;SDS011;6334;48.696;2.114;2023-07-22T08:13:32;6.77;;;4.93;;
12535;SDS011;6334;48.696;2.114;2023-07-22T08:16:02;13.30;;;5.20;;
12535;SDS011;6334;48.696;2.114;2023-07-22T08:18:34;7.57;;;4.77;;
12535;SDS011;6334;48.696;2.114;2023-07-22T08:21:05;7.37;;;4.63;;
12535;SDS011;6334;48.696;2.114;2023-07-22T08:23:36;5.57;;;4.47;;
12535;SDS011;6334;48.696;2.114;2023-07-22T08:26:07;6.93;;;4.93;;
12535;SDS011;6334;48.696;2.114;2023-07-22T08:28:37;4.90;;;4.40;;
12535;SDS011;6334;48.696;2.114;2023-07-22T08:31:07;5.87;;;4.73;;
12535;SDS011;6334;48.696;2.114;2023-07-22T08:33:38;6.37;;;4.60;;
12535;SDS011;6334;48.696;2.114;2023-07-22T08:36:08;6.93;;;4.90;;
12535;SDS011;6334;48.696;2.114;2023-07-22T08:38:39;5.10;;;4.10;;
12535;SDS011;6334;48.696;2.114;2023-07-22T08:41:13;6.57;;;4.83;;
12535;SDS011;6334;48.696;2.114;2023-07-22T08:43:40;5.77;;;4.83;;
12535;SDS011;6334;48.696;2.114;2023-07-22T08:46:10;6.30;;;4.87;;
12535;SDS011;6334;48.696;2.114;2023-07-22T08:48:41;6.60;;;4.70;;
12535;SDS011;6334;48.696;2.114;2023-07-22T08:51:20;6.80;;;4.77;;
12535;SDS011;6334;48.696;2.114;2023-07-22T08:53:49;7.20;;;4.93;;
12535;SDS011;6334;48.696;2.114;2023-07-22T08:56:19;5.97;;;4.77;;
12535;SDS011;6334;48.696;2.114;2023-07-22T08:58:51;5.47;;;4.53;;
12535;SDS011;6334;48.696;2.114;2023-07-22T09:01:21;6.83;;;4.70;;
12535;SDS011;6334;48.696;2.114;2023-07-22T09:03:53;6.73;;;4.70;;
12535;SDS011;6334;48.696;2.114;2023-07-22T09:06:23;6.73;;;5.00;;
12535;SDS011;6334;48.696;2.114;2023-07-22T09:08:53;6.17;;;4.57;;
12535;SDS011;6334;48.696;2.114;2023-07-22T09:11:24;6.27;;;4.60;;
12535;SDS011;6334;48.696;2.114;2023-07-22T09:13:55;5.73;;;4.20;;
12535;SDS011;6334;48.696;2.114;2023-07-22T09:16:26;6.00;;;4.57;;
12535;SDS011;6334;48.696;2.114;2023-07-22T09:18:57;4.63;;;4.03;;
12535;SDS011;6334;48.696;2.114;2023-07-22T09:21:27;6.33;;;4.40;;
12535;SDS011;6334;48.696;2.114;2023-07-22T09:23:58;7.90;;;4.57;;
12535;SDS011;6334;48.696;2.114;2023-07-22T09:26:28;8.07;;;5.10;;
12535;SDS011;6334;48.696;2.114;2023-07-22T09:28:59;9.90;;;5.00;;
12535;SDS011;6334;48.696;2.114;2023-07-22T09:31:29;9.13;;;4.73;;
12535;SDS011;6334;48.696;2.114;2023-07-22T09:34:09;7.17;;;4.97;;
12535;SDS011;6334;48.696;2.114;2023-07-22T09:36:58;4.87;;;4.13;;
12535;SDS011;6334;48.696;2.114;2023-07-22T09:39:29;6.03;;;4.60;;
12535;SDS011;6334;48.696;2.114;2023-07-22T09:42:00;6.77;;;4.57;;
12535;SDS011;6334;48.696;2.114;2023-07-22T09:44:30;5.10;;;4.50;;
12535;SDS011;6334;48.696;2.114;2023-07-22T09:47:05;7.77;;;4.63;;
12535;SDS011;6334;48.696;2.114;2023-07-22T09:49:31;6.13;;;4.80;;
12535;SDS011;6334;48.696;2.114;2023-07-22T09:52:03;7.03;;;4.60;;
12535;SDS011;6334;48.696;2.114;2023-07-22T09:54:32;5.60;;;4.53;;
12535;SDS011;6334;48.696;2.114;2023-07-22T09:57:02;9.03;;;4.33;;
12535;SDS011;6334;48.696;2.114;2023-07-22T09:59:33;9.20;;;4.87;;
12535;SDS011;6334;48.696;2.114;2023-07-22T10:02:03;16.17;;;5.43;;
12535;SDS011;6334;48.696;2.114;2023-07-22T10:04:34;6.50;;;4.70;;
12535;SDS011;6334;48.696;2.114;2023-07-22T10:07:04;7.67;;;4.50;;
12535;SDS011;6334;48.696;2.114;2023-07-22T10:09:35;5.73;;;4.33;;
12535;SDS011;6334;48.696;2.114;2023-07-22T10:12:07;5.77;;;4.33;;
12535;SDS011;6334;48.696;2.114;2023-07-22T10:14:37;9.50;;;4.77;;
12535;SDS011;6334;48.696;2.114;2023-07-22T10:17:11;6.17;;;4.50;;
12535;SDS011;6334;48.696;2.114;2023-07-22T10:19:42;6.60;;;4.70;;
12535;SDS011;6334;48.696;2.114;2023-07-22T10:22:12;6.33;;;4.27;;
12535;SDS011;6334;48.696;2.114;2023-07-22T10:24:43;4.23;;;3.83;;
12535;SDS011;6334;48.696;2.114;2023-07-22T10:27:14;10.97;;;4.50;;
12535;SDS011;6334;48.696;2.114;2023-07-22T10:29:45;5.65;;;4.65;;
12535;SDS011;6334;48.696;2.114;2023-07-22T10:32:14;7.57;;;4.17;;
12535;SDS011;6334;48.696;2.114;2023-07-22T10:34:44;4.87;;;4.40;;
12535;SDS011;6334;48.696;2.114;2023-07-22T10:37:17;4.63;;;4.20;;
12535;SDS011;6334;48.696;2.114;2023-07-22T10:39:45;9.53;;;4.40;;
12535;SDS011;6334;48.696;2.114;2023-07-22T10:42:23;5.40;;;4.17;;
12535;SDS011;6334;48.696;2.114;2023-07-22T10:44:46;4.53;;;3.90;;
12535;SDS011;6334;48.696;2.114;2023-07-22T10:47:32;5.60;;;3.83;;
12535;SDS011;6334;48.696;2.114;2023-07-22T10:50:07;3.83;;;3.53;;
12535;SDS011;6334;48.696;2.114;2023-07-22T10:52:39;4.07;;;3.67;;
12535;SDS011;6334;48.696;2.114;2023-07-22T10:55:14;5.13;;;3.87;;
12535;SDS011;6334;48.696;2.114;2023-07-22T10:57:49;4.40;;;4.00;;
12535;SDS011;6334;48.696;2.114;2023-07-22T11:00:19;4.50;;;3.87;;
12535;SDS011;6334;48.696;2.114;2023-07-22T11:05:49;4.43;;;3.93;;
12535;SDS011;6334;48.696;2.114;2023-07-22T11:08:35;4.07;;;3.60;;
12535;SDS011;6334;48.696;2.114;2023-07-22T11:11:04;5.27;;;3.70;;
12535;SDS011;6334;48.696;2.114;2023-07-22T11:13:37;4.80;;;4.07;;
12535;SDS011;6334;48.696;2.114;2023-07-22T11:16:10;4.30;;;3.90;;
12535;SDS011;6334;48.696;2.114;2023-07-22T11:18:40;4.13;;;3.33;;
12535;SDS011;6334;48.696;2.114;2023-07-22T11:21:11;6.00;;;3.93;;
12535;SDS011;6334;48.696;2.114;2023-07-22T11:23:41;5.03;;;3.93;;
12535;SDS011;6334;48.696;2.114;2023-07-22T11:26:13;5.47;;;3.90;;
12535;SDS011;6334;48.696;2.114;2023-07-22T11:28:45;7.37;;;3.80;;
12535;SDS011;6334;48.696;2.114;2023-07-22T11:31:14;6.17;;;3.93;;
12535;SDS011;6334;48.696;2.114;2023-07-22T11:33:44;5.00;;;4.13;;
12535;SDS011;6334;48.696;2.114;2023-07-22T11:36:15;5.03;;;3.87;;
12535;SDS011;6334;48.696;2.114;2023-07-22T11:38:45;5.43;;;3.87;;
12535;SDS011;6334;48.696;2.114;2023-07-22T11:41:16;4.37;;;3.77;;
12535;SDS011;6334;48.696;2.114;2023-07-22T11:43:46;4.10;;;3.70;;
12535;SDS011;6334;48.696;2.114;2023-07-22T11:46:17;4.07;;;3.67;;
12535;SDS011;6334;48.696;2.114;2023-07-22T11:48:50;4.57;;;3.80;;
12535;SDS011;6334;48.696;2.114;2023-07-22T11:51:20;4.20;;;3.60;;
12535;SDS011;6334;48.696;2.114;2023-07-22T11:53:50;4.23;;;3.63;;
12535;SDS011;6334;48.696;2.114;2023-07-22T11:56:24;5.20;;;3.77;;
12535;SDS011;6334;48.696;2.114;2023-07-22T11:58:54;3.97;;;3.67;;
12535;SDS011;6334;48.696;2.114;2023-07-22T12:01:23;5.17;;;3.70;;
12535;SDS011;6334;48.696;2.114;2023-07-22T12:03:56;4.17;;;3.57;;
12535;SDS011;6334;48.696;2.114;2023-07-22T12:06:27;4.17;;;3.80;;
12535;SDS011;6334;48.696;2.114;2023-07-22T12:08:57;4.30;;;3.70;;
12535;SDS011;6334;48.696;2.114;2023-07-22T12:11:27;5.57;;;3.87;;
12535;SDS011;6334;48.696;2.114;2023-07-22T12:14:04;6.77;;;4.37;;
12535;SDS011;6334;48.696;2.114;2023-07-22T12:16:37;5.60;;;4.37;;
12535;SDS011;6334;48.696;2.114;2023-07-22T12:19:07;6.23;;;3.97;;
12535;SDS011;6334;48.696;2.114;2023-07-22T12:21:37;4.57;;;4.10;;
12535;SDS011;6334;48.696;2.114;2023-07-22T12:24:08;5.20;;;3.80;;
12535;SDS011;6334;48.696;2.114;2023-07-22T12:26:38;4.97;;;3.93;;
12535;SDS011;6334;48.696;2.114;2023-07-22T12:29:09;5.20;;;3.70;;
12535;SDS011;6334;48.696;2.114;2023-07-22T12:31:39;5.53;;;3.77;;
12535;SDS011;6334;48.696;2.114;2023-07-22T12:34:10;5.07;;;3.77;;
12535;SDS011;6334;48.696;2.114;2023-07-22T12:36:40;4.10;;;3.50;;
12535;SDS011;6334;48.696;2.114;2023-07-22T12:39:11;4.37;;;3.93;;
12535;SDS011;6334;48.696;2.114;2023-07-22T12:41:41;5.00;;;3.80;;
12535;SDS011;6334;48.696;2.114;2023-07-22T12:44:12;4.63;;;3.70;;
12535;SDS011;6334;48.696;2.114;2023-07-22T12:46:42;4.23;;;3.83;;
12535;SDS011;6334;48.696;2.114;2023-07-22T12:49:12;5.13;;;4.30;;
12535;SDS011;6334;48.696;2.114;2023-07-22T12:51:43;5.87;;;3.93;;
12535;SDS011;6334;48.696;2.114;2023-07-22T12:54:13;4.00;;;3.67;;
12535;SDS011;6334;48.696;2.114;2023-07-22T12:56:44;4.77;;;3.97;;
12535;SDS011;6334;48.696;2.114;2023-07-22T12:59:14;5.77;;;3.87;;
12535;SDS011;6334;48.696;2.114;2023-07-22T13:01:45;4.97;;;3.57;;
12535;SDS011;6334;48.696;2.114;2023-07-22T13:04:15;5.07;;;3.90;;
12535;SDS011;6334;48.696;2.114;2023-07-22T13:06:46;6.13;;;4.10;;
12535;SDS011;6334;48.696;2.114;2023-07-22T13:09:16;6.20;;;4.07;;
12535;SDS011;6334;48.696;2.114;2023-07-22T13:11:46;4.13;;;3.73;;
12535;SDS011;6334;48.696;2.114;2023-07-22T13:14:17;5.37;;;3.83;;
12535;SDS011;6334;48.696;2.114;2023-07-22T13:16:47;4.20;;;3.80;;
12535;SDS011;6334;48.696;2.114;2023-07-22T13:19:18;8.73;;;4.33;;
12535;SDS011;6334;48.696;2.114;2023-07-22T13:21:48;4.33;;;3.70;;
12535;SDS011;6334;48.696;2.114;2023-07-22T13:24:20;5.77;;;4.00;;
12535;SDS011;6334;48.696;2.114;2023-07-22T13:26:49;4.77;;;4.10;;
12535;SDS011;6334;48.696;2.114;2023-07-22T13:29:20;10.37;;;4.27;;
12535;SDS011;6334;48.696;2.114;2023-07-22T13:31:50;9.10;;;4.30;;
12535;SDS011;6334;48.696;2.114;2023-07-22T13:34:21;10.47;;;4.43;;
12535;SDS011;6334;48.696;2.114;2023-07-22T13:36:52;5.97;;;3.70;;
12535;SDS011;6334;48.696;2.114;2023-07-22T13:39:22;7.57;;;4.03;;
12535;SDS011;6334;48.696;2.114;2023-07-22T13:41:53;6.37;;;4.27;;
12535;SDS011;6334;48.696;2.114;2023-07-22T13:44:23;4.87;;;3.87;;
12535;SDS011;6334;48.696;2.114;2023-07-22T13:46:54;4.80;;;4.03;;
12535;SDS011;6334;48.696;2.114;2023-07-22T13:49:24;7.90;;;4.33;;
12535;SDS011;6334;48.696;2.114;2023-07-22T13:51:55;5.63;;;3.83;;
12535;SDS011;6334;48.696;2.114;2023-07-22T13:54:26;5.73;;;4.27;;
12535;SDS011;6334;48.696;2.114;2023-07-22T13:56:57;5.83;;;4.10;;
12535;SDS011;6334;48.696;2.114;2023-07-22T13:59:27;5.50;;;4.30;;
12535;SDS011;6334;48.696;2.114;2023-07-22T14:01:58;5.60;;;4.30;;
12535;SDS011;6334;48.696;2.114;2023-07-22T14:04:28;5.97;;;4.30;;
12535;SDS011;6334;48.696;2.114;2023-07-22T14:06:59;7.03;;;4.00;;
12535;SDS011;6334;48.696;2.114;2023-07-22T14:09:29;7.10;;;4.50;;
12535;SDS011;6334;48.696;2.114;2023-07-22T14:12:01;5.00;;;4.17;;
12535;SDS011;6334;48.696;2.114;2023-07-22T14:14:31;5.47;;;4.00;;
12535;SDS011;6334;48.696;2.114;2023-07-22T14:17:01;4.40;;;4.00;;
12535;SDS011;6334;48.696;2.114;2023-07-22T14:19:32;4.73;;;4.13;;
12535;SDS011;6334;48.696;2.114;2023-07-22T14:22:02;4.30;;;3.80;;
12535;SDS011;6334;48.696;2.114;2023-07-22T14:24:33;4.43;;;3.80;;
12535;SDS011;6334;48.696;2.114;2023-07-22T14:27:03;4.53;;;4.13;;
12535;SDS011;6334;48.696;2.114;2023-07-22T14:29:34;5.10;;;4.10;;
12535;SDS011;6334;48.696;2.114;2023-07-22T14:32:04;7.90;;;4.47;;
12535;SDS011;6334;48.696;2.114;2023-07-22T14:34:34;6.50;;;4.17;;
12535;SDS011;6334;48.696;2.114;2023-07-22T14:37:05;5.73;;;4.33;;
12535;SDS011;6334;48.696;2.114;2023-07-22T14:39:35;4.17;;;3.70;;
12535;SDS011;6334;48.696;2.114;2023-07-22T14:42:06;4.47;;;3.77;;
12535;SDS011;6334;48.696;2.114;2023-07-22T14:44:36;4.50;;;4.00;;
12535;SDS011;6334;48.696;2.114;2023-07-22T14:47:07;5.00;;;4.00;;
12535;SDS011;6334;48.696;2.114;2023-07-22T14:49:37;5.50;;;4.40;;
12535;SDS011;6334;48.696;2.114;2023-07-22T14:52:08;6.40;;;4.10;;
12535;SDS011;6334;48.696;2.114;2023-07-22T14:54:38;8.03;;;4.60;;
12535;SDS011;6334;48.696;2.114;2023-07-22T14:57:09;6.63;;;4.70;;
12535;SDS011;6334;48.696;2.114;2023-07-22T14:59:39;4.40;;;3.87;;
12535;SDS011;6334;48.696;2.114;2023-07-22T15:02:09;6.07;;;4.40;;
12535;SDS011;6334;48.696;2.114;2023-07-22T15:04:40;4.20;;;3.77;;
12535;SDS011;6334;48.696;2.114;2023-07-22T15:07:10;5.77;;;3.93;;
12535;SDS011;6334;48.696;2.114;2023-07-22T15:09:41;6.20;;;4.20;;
12535;SDS011;6334;48.696;2.114;2023-07-22T15:12:11;4.30;;;3.90;;
12535;SDS011;6334;48.696;2.114;2023-07-22T15:14:43;5.13;;;4.03;;
12535;SDS011;6334;48.696;2.114;2023-07-22T15:17:12;4.27;;;3.87;;
12535;SDS011;6334;48.696;2.114;2023-07-22T15:19:43;6.13;;;4.20;;
12535;SDS011;6334;48.696;2.114;2023-07-22T15:22:13;4.77;;;3.97;;
12535;SDS011;6334;48.696;2.114;2023-07-22T15:24:44;8.37;;;4.70;;